sensor_id;sensor_type;location;lat;lon;timestamp;temperature;humidity
22923;DHT22;11627;51.322;22.816;2023-05-29T00:00:05;12.20;1.00
22923;DHT22;11627;51.322;22.816;2023-05-29T00:02:34;12.20;1.00
22923;DHT22;11627;51.322;22.816;2023-05-29T00:05:00;12.20;1.00
22923;DHT22;11627;51.322;22.816;2023-05-29T00:07:31;12.40;1.00
22923;DHT22;11627;51.322;22.816;2023-05-29T00:10:00;12.60;1.00
22923;DHT22;11627;51.322;22.816;2023-05-29T00:12:26;12.50;1.00
22923;DHT22;11627;51.322;22.816;2023-05-29T00:14:51;12.60;1.00
22923;DHT22;11627;51.322;22.816;2023-05-29T00:17:17;12.70;99.90
22923;DHT22;11627;51.322;22.816;2023-05-29T00:19:43;12.90;99.90
22923;DHT22;11627;51.322;22.816;2023-05-29T00:22:09;12.60;99.90
22923;DHT22;11627;51.322;22.816;2023-05-29T00:24:35;12.60;99.90
22923;DHT22;11627;51.322;22.816;2023-05-29T00:27:01;12.50;99.90
22923;DHT22;11627;51.322;22.816;2023-05-29T00:29:27;12.40;99.90
22923;DHT22;11627;51.322;22.816;2023-05-29T00:31:53;12.60;99.90
22923;DHT22;11627;51.322;22.816;2023-05-29T00:34:19;12.30;99.90
22923;DHT22;11627;51.322;22.816;2023-05-29T00:36:45;12.30;99.90
22923;DHT22;11627;51.322;22.816;2023-05-29T00:39:12;12.50;99.90
22923;DHT22;11627;51.322;22.816;2023-05-29T00:41:38;12.80;99.90
22923;DHT22;11627;51.322;22.816;2023-05-29T00:44:03;13.10;99.90
22923;DHT22;11627;51.322;22.816;2023-05-29T00:46:30;13.10;99.90
22923;DHT22;11627;51.322;22.816;2023-05-29T00:48:58;13.20;91.50
22923;DHT22;11627;51.322;22.816;2023-05-29T00:51:25;13.30;91.00
22923;DHT22;11627;51.322;22.816;2023-05-29T00:53:52;13.20;85.00
22923;DHT22;11627;51.322;22.816;2023-05-29T00:56:18;13.20;21.30
22923;DHT22;11627;51.322;22.816;2023-05-29T00:58:50;13.90;12.90
22923;DHT22;11627;51.322;22.816;2023-05-29T01:01:18;13.00;1.00
22923;DHT22;11627;51.322;22.816;2023-05-29T01:03:44;12.80;1.00
22923;DHT22;11627;51.322;22.816;2023-05-29T01:06:11;12.60;1.00
22923;DHT22;11627;51.322;22.816;2023-05-29T01:08:37;12.50;1.00
22923;DHT22;11627;51.322;22.816;2023-05-29T01:13:56;12.30;1.00
22923;DHT22;11627;51.322;22.816;2023-05-29T01:16:26;12.60;1.70
22923;DHT22;11627;51.322;22.816;2023-05-29T01:19:19;12.60;1.00
22923;DHT22;11627;51.322;22.816;2023-05-29T01:26:52;12.40;1.00
22923;DHT22;11627;51.322;22.816;2023-05-29T01:29:22;12.30;1.00
22923;DHT22;11627;51.322;22.816;2023-05-29T01:31:50;12.10;1.00
22923;DHT22;11627;51.322;22.816;2023-05-29T01:34:15;11.80;1.00
22923;DHT22;11627;51.322;22.816;2023-05-29T01:36:41;11.50;99.90
22923;DHT22;11627;51.322;22.816;2023-05-29T01:39:07;11.30;99.90
22923;DHT22;11627;51.322;22.816;2023-05-29T01:41:34;11.20;1.00
22923;DHT22;11627;51.322;22.816;2023-05-29T01:44:03;11.30;1.00
22923;DHT22;11627;51.322;22.816;2023-05-29T01:46:29;11.50;1.00
22923;DHT22;11627;51.322;22.816;2023-05-29T01:48:55;11.80;1.00
22923;DHT22;11627;51.322;22.816;2023-05-29T01:51:21;11.80;99.90
22923;DHT22;11627;51.322;22.816;2023-05-29T01:53:47;11.60;99.90
22923;DHT22;11627;51.322;22.816;2023-05-29T01:56:13;11.60;99.90
22923;DHT22;11627;51.322;22.816;2023-05-29T01:58:40;11.60;99.90
22923;DHT22;11627;51.322;22.816;2023-05-29T02:01:06;11.70;99.90
22923;DHT22;11627;51.322;22.816;2023-05-29T02:03:33;11.80;99.90
22923;DHT22;11627;51.322;22.816;2023-05-29T02:06:00;11.90;99.90
22923;DHT22;11627;51.322;22.816;2023-05-29T02:08:26;11.70;99.90
22923;DHT22;11627;51.322;22.816;2023-05-29T02:10:52;11.50;99.90
22923;DHT22;11627;51.322;22.816;2023-05-29T02:13:18;11.40;99.90
22923;DHT22;11627;51.322;22.816;2023-05-29T02:15:44;11.40;99.90
22923;DHT22;11627;51.322;22.816;2023-05-29T02:18:11;11.50;99.90
22923;DHT22;11627;51.322;22.816;2023-05-29T02:20:40;11.60;99.90
22923;DHT22;11627;51.322;22.816;2023-05-29T02:23:08;11.80;99.90
22923;DHT22;11627;51.322;22.816;2023-05-29T02:25:34;11.80;99.90
22923;DHT22;11627;51.322;22.816;2023-05-29T02:28:01;11.70;91.80
22923;DHT22;11627;51.322;22.816;2023-05-29T02:30:27;11.50;80.00
22923;DHT22;11627;51.322;22.816;2023-05-29T02:32:53;11.30;93.80
22923;DHT22;11627;51.322;22.816;2023-05-29T02:35:19;11.30;99.90
22923;DHT22;11627;51.322;22.816;2023-05-29T02:37:50;11.40;99.90
22923;DHT22;11627;51.322;22.816;2023-05-29T02:40:16;11.50;99.90
22923;DHT22;11627;51.322;22.816;2023-05-29T02:42:43;11.40;99.90
22923;DHT22;11627;51.322;22.816;2023-05-29T02:45:09;11.50;99.90
22923;DHT22;11627;51.322;22.816;2023-05-29T02:47:35;11.40;99.90
22923;DHT22;11627;51.322;22.816;2023-05-29T02:50:01;11.30;99.90
22923;DHT22;11627;51.322;22.816;2023-05-29T02:52:27;11.20;99.90
22923;DHT22;11627;51.322;22.816;2023-05-29T02:54:53;11.20;99.90
22923;DHT22;11627;51.322;22.816;2023-05-29T02:57:24;11.10;99.90
22923;DHT22;11627;51.322;22.816;2023-05-29T02:59:50;11.10;99.90
22923;DHT22;11627;51.322;22.816;2023-05-29T03:02:15;11.00;99.90
22923;DHT22;11627;51.322;22.816;2023-05-29T03:04:41;10.90;99.90
22923;DHT22;11627;51.322;22.816;2023-05-29T03:07:06;10.90;99.90
22923;DHT22;11627;51.322;22.816;2023-05-29T03:09:35;11.00;99.90
22923;DHT22;11627;51.322;22.816;2023-05-29T03:12:01;10.90;99.90
22923;DHT22;11627;51.322;22.816;2023-05-29T03:14:27;10.90;99.90
22923;DHT22;11627;51.322;22.816;2023-05-29T03:16:53;10.80;99.90
22923;DHT22;11627;51.322;22.816;2023-05-29T03:19:19;10.90;1.00
22923;DHT22;11627;51.322;22.816;2023-05-29T03:21:45;10.90;99.90
22923;DHT22;11627;51.322;22.816;2023-05-29T03:24:11;10.90;1.00
22923;DHT22;11627;51.322;22.816;2023-05-29T03:26:39;11.00;1.00
22923;DHT22;11627;51.322;22.816;2023-05-29T03:29:05;11.20;1.00
22923;DHT22;11627;51.322;22.816;2023-05-29T03:31:31;11.30;1.00
22923;DHT22;11627;51.322;22.816;2023-05-29T03:33:57;11.30;1.00
22923;DHT22;11627;51.322;22.816;2023-05-29T03:36:23;11.30;1.00
22923;DHT22;11627;51.322;22.816;2023-05-29T03:38:49;11.30;1.00
22923;DHT22;11627;51.322;22.816;2023-05-29T03:41:15;11.30;1.00
22923;DHT22;11627;51.322;22.816;2023-05-29T03:43:41;11.50;1.00
22923;DHT22;11627;51.322;22.816;2023-05-29T03:46:07;11.70;1.00
22923;DHT22;11627;51.322;22.816;2023-05-29T03:48:32;11.90;1.00
22923;DHT22;11627;51.322;22.816;2023-05-29T03:50:58;11.70;1.00
22923;DHT22;11627;51.322;22.816;2023-05-29T03:53:24;12.00;1.00
22923;DHT22;11627;51.322;22.816;2023-05-29T03:55:50;12.00;1.00
22923;DHT22;11627;51.322;22.816;2023-05-29T03:58:15;12.10;1.00
22923;DHT22;11627;51.322;22.816;2023-05-29T04:00:41;12.10;1.00
22923;DHT22;11627;51.322;22.816;2023-05-29T04:03:07;12.20;1.00
22923;DHT22;11627;51.322;22.816;2023-05-29T04:05:33;12.30;1.00
22923;DHT22;11627;51.322;22.816;2023-05-29T04:07:59;12.50;1.00
22923;DHT22;11627;51.322;22.816;2023-05-29T04:10:24;12.50;1.00
22923;DHT22;11627;51.322;22.816;2023-05-29T04:12:51;12.50;1.00
22923;DHT22;11627;51.322;22.816;2023-05-29T04:15:16;12.50;1.00
22923;DHT22;11627;51.322;22.816;2023-05-29T04:17:42;12.70;1.00
22923;DHT22;11627;51.322;22.816;2023-05-29T04:20:08;12.80;1.00
22923;DHT22;11627;51.322;22.816;2023-05-29T04:22:36;12.90;1.00
22923;DHT22;11627;51.322;22.816;2023-05-29T04:25:02;13.10;1.00
22923;DHT22;11627;51.322;22.816;2023-05-29T04:27:32;13.20;99.90
22923;DHT22;11627;51.322;22.816;2023-05-29T04:29:58;13.40;99.90
22923;DHT22;11627;51.322;22.816;2023-05-29T04:32:24;13.40;99.90
22923;DHT22;11627;51.322;22.816;2023-05-29T04:34:50;13.60;99.90
22923;DHT22;11627;51.322;22.816;2023-05-29T04:37:16;13.60;99.90
22923;DHT22;11627;51.322;22.816;2023-05-29T04:39:43;13.80;99.90
22923;DHT22;11627;51.322;22.816;2023-05-29T04:42:09;13.90;99.90
22923;DHT22;11627;51.322;22.816;2023-05-29T04:44:34;13.90;99.90
22923;DHT22;11627;51.322;22.816;2023-05-29T04:47:00;13.80;99.90
22923;DHT22;11627;51.322;22.816;2023-05-29T04:49:29;13.90;99.90
22923;DHT22;11627;51.322;22.816;2023-05-29T04:51:55;14.00;99.90
22923;DHT22;11627;51.322;22.816;2023-05-29T04:54:22;13.90;99.90
22923;DHT22;11627;51.322;22.816;2023-05-29T04:56:48;14.00;99.90
22923;DHT22;11627;51.322;22.816;2023-05-29T04:59:14;14.10;99.90
22923;DHT22;11627;51.322;22.816;2023-05-29T05:01:40;14.20;99.90
22923;DHT22;11627;51.322;22.816;2023-05-29T05:04:09;14.40;99.90
22923;DHT22;11627;51.322;22.816;2023-05-29T05:06:34;14.50;99.90
22923;DHT22;11627;51.322;22.816;2023-05-29T05:09:00;14.50;99.90
22923;DHT22;11627;51.322;22.816;2023-05-29T05:11:26;14.60;99.90
22923;DHT22;11627;51.322;22.816;2023-05-29T05:13:52;14.70;99.90
22923;DHT22;11627;51.322;22.816;2023-05-29T05:16:18;14.70;99.90
22923;DHT22;11627;51.322;22.816;2023-05-29T05:18:44;14.80;99.90
22923;DHT22;11627;51.322;22.816;2023-05-29T05:21:09;14.90;99.90
22923;DHT22;11627;51.322;22.816;2023-05-29T05:23:36;14.90;99.90
22923;DHT22;11627;51.322;22.816;2023-05-29T05:26:02;15.00;99.90
22923;DHT22;11627;51.322;22.816;2023-05-29T05:28:28;15.20;99.90
22923;DHT22;11627;51.322;22.816;2023-05-29T05:30:53;15.00;99.90
22923;DHT22;11627;51.322;22.816;2023-05-29T05:33:19;15.20;99.90
22923;DHT22;11627;51.322;22.816;2023-05-29T05:35:45;15.20;99.90
22923;DHT22;11627;51.322;22.816;2023-05-29T05:38:11;15.20;99.90
22923;DHT22;11627;51.322;22.816;2023-05-29T05:40:37;15.20;99.90
22923;DHT22;11627;51.322;22.816;2023-05-29T05:43:03;15.20;99.90
22923;DHT22;11627;51.322;22.816;2023-05-29T05:45:29;15.20;99.90
22923;DHT22;11627;51.322;22.816;2023-05-29T05:47:56;15.30;99.90
22923;DHT22;11627;51.322;22.816;2023-05-29T05:50:22;15.40;99.90
22923;DHT22;11627;51.322;22.816;2023-05-29T05:52:47;15.40;99.90
22923;DHT22;11627;51.322;22.816;2023-05-29T05:55:13;15.40;99.90
22923;DHT22;11627;51.322;22.816;2023-05-29T05:57:39;15.40;99.90
22923;DHT22;11627;51.322;22.816;2023-05-29T06:00:05;15.50;99.90
22923;DHT22;11627;51.322;22.816;2023-05-29T06:02:37;15.50;99.90
22923;DHT22;11627;51.322;22.816;2023-05-29T06:05:03;15.60;99.90
22923;DHT22;11627;51.322;22.816;2023-05-29T06:07:29;15.60;99.90
22923;DHT22;11627;51.322;22.816;2023-05-29T06:09:55;15.60;99.90
22923;DHT22;11627;51.322;22.816;2023-05-29T06:12:21;15.70;99.90
22923;DHT22;11627;51.322;22.816;2023-05-29T06:14:46;15.70;99.90
22923;DHT22;11627;51.322;22.816;2023-05-29T06:17:12;15.70;99.90
22923;DHT22;11627;51.322;22.816;2023-05-29T06:19:38;15.80;99.90
22923;DHT22;11627;51.322;22.816;2023-05-29T06:22:05;15.80;99.90
22923;DHT22;11627;51.322;22.816;2023-05-29T06:24:30;16.00;99.90
22923;DHT22;11627;51.322;22.816;2023-05-29T06:26:56;16.00;99.90
22923;DHT22;11627;51.322;22.816;2023-05-29T06:29:22;16.00;99.90
22923;DHT22;11627;51.322;22.816;2023-05-29T06:31:47;16.20;99.90
22923;DHT22;11627;51.322;22.816;2023-05-29T06:34:13;16.20;99.90
22923;DHT22;11627;51.322;22.816;2023-05-29T06:36:39;16.10;99.90
22923;DHT22;11627;51.322;22.816;2023-05-29T06:39:05;16.20;99.90
22923;DHT22;11627;51.322;22.816;2023-05-29T06:41:31;16.30;99.90
22923;DHT22;11627;51.322;22.816;2023-05-29T06:43:57;16.40;99.90
22923;DHT22;11627;51.322;22.816;2023-05-29T06:46:22;16.50;99.90
22923;DHT22;11627;51.322;22.816;2023-05-29T06:48:48;16.50;99.90
22923;DHT22;11627;51.322;22.816;2023-05-29T06:51:14;16.60;99.90
22923;DHT22;11627;51.322;22.816;2023-05-29T06:53:40;16.60;99.90
22923;DHT22;11627;51.322;22.816;2023-05-29T06:56:06;16.70;99.90
22923;DHT22;11627;51.322;22.816;2023-05-29T06:58:32;16.80;99.90
22923;DHT22;11627;51.322;22.816;2023-05-29T07:00:58;16.80;99.90
22923;DHT22;11627;51.322;22.816;2023-05-29T07:03:27;16.90;99.90
22923;DHT22;11627;51.322;22.816;2023-05-29T07:05:53;16.90;99.90
22923;DHT22;11627;51.322;22.816;2023-05-29T07:08:19;17.00;99.90
22923;DHT22;11627;51.322;22.816;2023-05-29T07:10:45;17.10;99.90
22923;DHT22;11627;51.322;22.816;2023-05-29T07:13:15;17.20;99.90
22923;DHT22;11627;51.322;22.816;2023-05-29T07:15:42;17.30;99.90
22923;DHT22;11627;51.322;22.816;2023-05-29T07:18:07;17.20;99.90
22923;DHT22;11627;51.322;22.816;2023-05-29T07:20:33;17.60;99.90
22923;DHT22;11627;51.322;22.816;2023-05-29T07:22:59;17.30;99.90
22923;DHT22;11627;51.322;22.816;2023-05-29T07:25:25;17.40;99.90
22923;DHT22;11627;51.322;22.816;2023-05-29T07:27:51;17.40;99.90
22923;DHT22;11627;51.322;22.816;2023-05-29T07:30:19;17.60;99.90
22923;DHT22;11627;51.322;22.816;2023-05-29T07:32:45;17.60;99.90
22923;DHT22;11627;51.322;22.816;2023-05-29T07:35:14;17.70;99.90
22923;DHT22;11627;51.322;22.816;2023-05-29T07:37:41;17.70;99.90
22923;DHT22;11627;51.322;22.816;2023-05-29T07:40:08;18.00;99.90
22923;DHT22;11627;51.322;22.816;2023-05-29T07:42:35;17.90;99.90
22923;DHT22;11627;51.322;22.816;2023-05-29T07:45:03;17.90;99.90
22923;DHT22;11627;51.322;22.816;2023-05-29T07:47:30;17.90;99.90
22923;DHT22;11627;51.322;22.816;2023-05-29T07:49:57;17.90;99.90
22923;DHT22;11627;51.322;22.816;2023-05-29T07:52:23;18.00;99.90
22923;DHT22;11627;51.322;22.816;2023-05-29T07:54:50;18.10;99.90
22923;DHT22;11627;51.322;22.816;2023-05-29T07:57:18;18.30;99.90
22923;DHT22;11627;51.322;22.816;2023-05-29T07:59:45;18.20;99.90
22923;DHT22;11627;51.322;22.816;2023-05-29T08:02:16;18.20;99.90
22923;DHT22;11627;51.322;22.816;2023-05-29T08:04:43;18.30;99.90
22923;DHT22;11627;51.322;22.816;2023-05-29T08:07:10;18.20;99.90
22923;DHT22;11627;51.322;22.816;2023-05-29T08:09:37;18.40;99.90
22923;DHT22;11627;51.322;22.816;2023-05-29T08:12:07;18.40;99.90
22923;DHT22;11627;51.322;22.816;2023-05-29T08:14:34;18.50;99.90
22923;DHT22;11627;51.322;22.816;2023-05-29T08:17:00;18.60;99.90
22923;DHT22;11627;51.322;22.816;2023-05-29T08:19:26;18.60;99.90
22923;DHT22;11627;51.322;22.816;2023-05-29T08:21:53;18.60;99.90
22923;DHT22;11627;51.322;22.816;2023-05-29T08:24:20;18.70;99.90
22923;DHT22;11627;51.322;22.816;2023-05-29T08:26:48;18.70;99.90
22923;DHT22;11627;51.322;22.816;2023-05-29T08:29:15;18.80;99.90
22923;DHT22;11627;51.322;22.816;2023-05-29T08:31:42;19.00;99.90
22923;DHT22;11627;51.322;22.816;2023-05-29T08:34:09;18.90;99.90
22923;DHT22;11627;51.322;22.816;2023-05-29T08:36:36;19.10;99.90
22923;DHT22;11627;51.322;22.816;2023-05-29T08:39:03;18.90;99.90
22923;DHT22;11627;51.322;22.816;2023-05-29T08:44:23;19.00;99.90
22923;DHT22;11627;51.322;22.816;2023-05-29T08:46:56;19.20;99.90
22923;DHT22;11627;51.322;22.816;2023-05-29T08:49:28;19.10;99.90
22923;DHT22;11627;51.322;22.816;2023-05-29T08:52:02;19.20;99.90
22923;DHT22;11627;51.322;22.816;2023-05-29T08:54:32;19.10;99.90
22923;DHT22;11627;51.322;22.816;2023-05-29T08:57:00;19.20;99.90
22923;DHT22;11627;51.322;22.816;2023-05-29T08:59:27;19.10;99.90
22923;DHT22;11627;51.322;22.816;2023-05-29T09:01:59;19.10;99.90
22923;DHT22;11627;51.322;22.816;2023-05-29T09:04:28;19.20;99.90
22923;DHT22;11627;51.322;22.816;2023-05-29T09:06:58;19.30;99.90
22923;DHT22;11627;51.322;22.816;2023-05-29T09:09:31;19.30;99.90
22923;DHT22;11627;51.322;22.816;2023-05-29T09:11:59;19.30;99.90
22923;DHT22;11627;51.322;22.816;2023-05-29T09:14:42;19.40;99.90
22923;DHT22;11627;51.322;22.816;2023-05-29T09:17:10;19.50;99.90
22923;DHT22;11627;51.322;22.816;2023-05-29T09:19:39;19.70;99.90
22923;DHT22;11627;51.322;22.816;2023-05-29T09:22:18;19.80;99.90
22923;DHT22;11627;51.322;22.816;2023-05-29T09:24:48;19.80;99.90
22923;DHT22;11627;51.322;22.816;2023-05-29T09:27:17;19.80;99.90
22923;DHT22;11627;51.322;22.816;2023-05-29T09:29:45;19.90;99.90
22923;DHT22;11627;51.322;22.816;2023-05-29T09:32:16;20.00;99.90
22923;DHT22;11627;51.322;22.816;2023-05-29T09:34:44;19.90;99.90
22923;DHT22;11627;51.322;22.816;2023-05-29T09:37:15;19.80;99.90
22923;DHT22;11627;51.322;22.816;2023-05-29T09:40:07;19.90;99.90
22923;DHT22;11627;51.322;22.816;2023-05-29T09:42:37;19.80;99.90
22923;DHT22;11627;51.322;22.816;2023-05-29T09:45:04;20.10;99.90
22923;DHT22;11627;51.322;22.816;2023-05-29T09:47:34;19.90;99.90
22923;DHT22;11627;51.322;22.816;2023-05-29T09:50:01;20.00;99.90
22923;DHT22;11627;51.322;22.816;2023-05-29T09:52:29;20.00;99.90
22923;DHT22;11627;51.322;22.816;2023-05-29T09:54:57;20.00;99.90
22923;DHT22;11627;51.322;22.816;2023-05-29T09:57:24;20.10;99.90
22923;DHT22;11627;51.322;22.816;2023-05-29T09:59:52;20.10;99.90
22923;DHT22;11627;51.322;22.816;2023-05-29T10:02:20;20.00;99.90
22923;DHT22;11627;51.322;22.816;2023-05-29T10:04:48;19.90;99.90
22923;DHT22;11627;51.322;22.816;2023-05-29T10:07:25;20.10;99.90
22923;DHT22;11627;51.322;22.816;2023-05-29T10:10:04;20.40;99.90
22923;DHT22;11627;51.322;22.816;2023-05-29T10:12:41;20.40;99.90
22923;DHT22;11627;51.322;22.816;2023-05-29T10:15:14;20.50;99.90
22923;DHT22;11627;51.322;22.816;2023-05-29T10:17:51;20.60;99.90
22923;DHT22;11627;51.322;22.816;2023-05-29T10:20:23;20.60;99.90
22923;DHT22;11627;51.322;22.816;2023-05-29T10:22:52;20.60;99.90
22923;DHT22;11627;51.322;22.816;2023-05-29T10:25:20;20.60;99.90
22923;DHT22;11627;51.322;22.816;2023-05-29T10:27:48;20.60;99.90
22923;DHT22;11627;51.322;22.816;2023-05-29T10:36:34;20.60;99.90
22923;DHT22;11627;51.322;22.816;2023-05-29T10:39:03;20.50;99.90
22923;DHT22;11627;51.322;22.816;2023-05-29T10:41:31;20.50;99.90
22923;DHT22;11627;51.322;22.816;2023-05-29T10:47:05;20.40;99.90
22923;DHT22;11627;51.322;22.816;2023-05-29T10:49:31;19.70;99.90
22923;DHT22;11627;51.322;22.816;2023-05-29T10:51:59;20.40;99.90
22923;DHT22;11627;51.322;22.816;2023-05-29T10:54:27;20.40;99.90
22923;DHT22;11627;51.322;22.816;2023-05-29T10:57:00;20.50;99.90
22923;DHT22;11627;51.322;22.816;2023-05-29T10:59:28;20.60;99.90
22923;DHT22;11627;51.322;22.816;2023-05-29T11:01:55;20.60;99.90
22923;DHT22;11627;51.322;22.816;2023-05-29T11:04:44;20.70;99.90
22923;DHT22;11627;51.322;22.816;2023-05-29T11:07:56;20.70;99.90
22923;DHT22;11627;51.322;22.816;2023-05-29T11:13:24;20.80;99.90
22923;DHT22;11627;51.322;22.816;2023-05-29T11:19:03;20.90;99.90
22923;DHT22;11627;51.322;22.816;2023-05-29T11:21:51;21.10;99.90
22923;DHT22;11627;51.322;22.816;2023-05-29T11:24:27;21.00;99.90
22923;DHT22;11627;51.322;22.816;2023-05-29T11:26:55;21.10;99.90
22923;DHT22;11627;51.322;22.816;2023-05-29T11:29:26;21.10;99.90
22923;DHT22;11627;51.322;22.816;2023-05-29T11:32:24;21.10;99.90
22923;DHT22;11627;51.322;22.816;2023-05-29T11:34:58;21.10;99.90
22923;DHT22;11627;51.322;22.816;2023-05-29T11:37:27;21.10;99.90
22923;DHT22;11627;51.322;22.816;2023-05-29T11:39:54;21.20;99.90
22923;DHT22;11627;51.322;22.816;2023-05-29T11:44:48;21.10;99.90
22923;DHT22;11627;51.322;22.816;2023-05-29T11:47:15;21.20;99.90
22923;DHT22;11627;51.322;22.816;2023-05-29T11:49:42;21.20;99.90
22923;DHT22;11627;51.322;22.816;2023-05-29T11:52:14;21.10;99.90
22923;DHT22;11627;51.322;22.816;2023-05-29T11:54:44;21.20;99.90
22923;DHT22;11627;51.322;22.816;2023-05-29T11:57:20;21.20;99.90
22923;DHT22;11627;51.322;22.816;2023-05-29T11:59:49;21.80;99.90
22923;DHT22;11627;51.322;22.816;2023-05-29T12:02:16;21.30;99.90
22923;DHT22;11627;51.322;22.816;2023-05-29T12:04:43;21.20;99.90
22923;DHT22;11627;51.322;22.816;2023-05-29T12:07:19;21.20;99.90
22923;DHT22;11627;51.322;22.816;2023-05-29T12:09:46;21.40;99.90
22923;DHT22;11627;51.322;22.816;2023-05-29T12:12:16;21.10;99.90
22923;DHT22;11627;51.322;22.816;2023-05-29T12:18:07;21.10;99.90
22923;DHT22;11627;51.322;22.816;2023-05-29T12:20:34;21.20;99.90
22923;DHT22;11627;51.322;22.816;2023-05-29T12:23:01;21.20;99.90
22923;DHT22;11627;51.322;22.816;2023-05-29T12:25:27;21.20;99.90
22923;DHT22;11627;51.322;22.816;2023-05-29T12:27:55;21.20;99.90
22923;DHT22;11627;51.322;22.816;2023-05-29T12:30:22;21.20;99.90
22923;DHT22;11627;51.322;22.816;2023-05-29T12:33:28;21.30;99.90
22923;DHT22;11627;51.322;22.816;2023-05-29T12:35:54;21.30;99.90
22923;DHT22;11627;51.322;22.816;2023-05-29T12:38:22;21.30;99.90
22923;DHT22;11627;51.322;22.816;2023-05-29T12:40:49;21.40;99.90
22923;DHT22;11627;51.322;22.816;2023-05-29T12:43:43;21.40;99.90
22923;DHT22;11627;51.322;22.816;2023-05-29T12:46:09;21.60;99.90
22923;DHT22;11627;51.322;22.816;2023-05-29T12:48:39;21.50;99.90
22923;DHT22;11627;51.322;22.816;2023-05-29T12:51:05;21.50;99.90
22923;DHT22;11627;51.322;22.816;2023-05-29T12:53:48;21.50;99.90
22923;DHT22;11627;51.322;22.816;2023-05-29T12:56:24;21.50;99.90
22923;DHT22;11627;51.322;22.816;2023-05-29T13:01:42;21.70;99.90
22923;DHT22;11627;51.322;22.816;2023-05-29T13:04:08;21.80;99.90
22923;DHT22;11627;51.322;22.816;2023-05-29T13:07:08;21.70;99.90
22923;DHT22;11627;51.322;22.816;2023-05-29T13:12:54;21.80;99.90
22923;DHT22;11627;51.322;22.816;2023-05-29T13:15:42;21.80;99.90
22923;DHT22;11627;51.322;22.816;2023-05-29T13:18:08;21.70;99.90
22923;DHT22;11627;51.322;22.816;2023-05-29T13:20:33;21.80;99.90
22923;DHT22;11627;51.322;22.816;2023-05-29T13:23:02;21.80;99.90
22923;DHT22;11627;51.322;22.816;2023-05-29T13:29:14;21.80;99.90
22923;DHT22;11627;51.322;22.816;2023-05-29T13:31:58;21.90;99.90
22923;DHT22;11627;51.322;22.816;2023-05-29T13:34:26;21.80;99.90
22923;DHT22;11627;51.322;22.816;2023-05-29T13:37:12;21.60;99.90
22923;DHT22;11627;51.322;22.816;2023-05-29T13:39:58;21.60;99.90
22923;DHT22;11627;51.322;22.816;2023-05-29T13:43:04;22.00;99.90
22923;DHT22;11627;51.322;22.816;2023-05-29T13:45:35;22.40;99.90
22923;DHT22;11627;51.322;22.816;2023-05-29T13:48:01;21.90;99.90
22923;DHT22;11627;51.322;22.816;2023-05-29T13:50:27;22.00;99.90
22923;DHT22;11627;51.322;22.816;2023-05-29T13:52:53;22.20;99.90
22923;DHT22;11627;51.322;22.816;2023-05-29T14:02:02;22.30;99.90
22923;DHT22;11627;51.322;22.816;2023-05-29T14:04:29;22.30;99.90
22923;DHT22;11627;51.322;22.816;2023-05-29T14:06:56;22.30;99.90
22923;DHT22;11627;51.322;22.816;2023-05-29T14:09:22;22.20;99.90
22923;DHT22;11627;51.322;22.816;2023-05-29T14:11:53;22.20;99.90
22923;DHT22;11627;51.322;22.816;2023-05-29T14:14:20;22.20;99.90
22923;DHT22;11627;51.322;22.816;2023-05-29T14:16:45;22.00;99.90
22923;DHT22;11627;51.322;22.816;2023-05-29T14:19:11;21.90;99.90
22923;DHT22;11627;51.322;22.816;2023-05-29T14:21:37;22.10;99.90
22923;DHT22;11627;51.322;22.816;2023-05-29T14:24:02;22.10;99.90
22923;DHT22;11627;51.322;22.816;2023-05-29T14:26:28;22.10;99.90
22923;DHT22;11627;51.322;22.816;2023-05-29T14:28:54;22.30;99.90
22923;DHT22;11627;51.322;22.816;2023-05-29T14:31:22;22.20;99.90
22923;DHT22;11627;51.322;22.816;2023-05-29T14:33:47;22.40;99.90
22923;DHT22;11627;51.322;22.816;2023-05-29T14:36:13;22.40;99.90
22923;DHT22;11627;51.322;22.816;2023-05-29T14:38:39;22.50;99.90
22923;DHT22;11627;51.322;22.816;2023-05-29T14:41:07;22.30;99.90
22923;DHT22;11627;51.322;22.816;2023-05-29T14:43:32;22.30;99.90
22923;DHT22;11627;51.322;22.816;2023-05-29T14:45:58;22.40;99.90
22923;DHT22;11627;51.322;22.816;2023-05-29T14:48:24;22.30;99.90
22923;DHT22;11627;51.322;22.816;2023-05-29T14:50:49;22.20;99.90
22923;DHT22;11627;51.322;22.816;2023-05-29T14:53:15;22.30;99.90
22923;DHT22;11627;51.322;22.816;2023-05-29T14:55:41;22.30;99.90
22923;DHT22;11627;51.322;22.816;2023-05-29T14:58:06;22.30;99.90
22923;DHT22;11627;51.322;22.816;2023-05-29T15:00:32;22.40;99.90
22923;DHT22;11627;51.322;22.816;2023-05-29T15:02:58;22.50;99.90
22923;DHT22;11627;51.322;22.816;2023-05-29T15:05:28;22.50;99.90
22923;DHT22;11627;51.322;22.816;2023-05-29T15:07:54;22.50;99.90
22923;DHT22;11627;51.322;22.816;2023-05-29T15:10:25;22.50;99.90
22923;DHT22;11627;51.322;22.816;2023-05-29T15:12:54;22.50;99.90
22923;DHT22;11627;51.322;22.816;2023-05-29T15:15:26;22.40;99.90
22923;DHT22;11627;51.322;22.816;2023-05-29T15:17:53;22.40;99.90
22923;DHT22;11627;51.322;22.816;2023-05-29T15:20:25;22.40;99.90
22923;DHT22;11627;51.322;22.816;2023-05-29T15:22:52;22.70;99.90
22923;DHT22;11627;51.322;22.816;2023-05-29T15:25:20;22.80;99.90
22923;DHT22;11627;51.322;22.816;2023-05-29T15:27:46;22.90;99.90
22923;DHT22;11627;51.322;22.816;2023-05-29T15:30:14;23.10;99.90
22923;DHT22;11627;51.322;22.816;2023-05-29T15:32:41;23.20;99.90
22923;DHT22;11627;51.322;22.816;2023-05-29T15:35:12;23.40;99.90
22923;DHT22;11627;51.322;22.816;2023-05-29T15:37:38;23.60;99.90
22923;DHT22;11627;51.322;22.816;2023-05-29T15:40:06;23.60;99.90
22923;DHT22;11627;51.322;22.816;2023-05-29T15:42:32;23.80;99.90
22923;DHT22;11627;51.322;22.816;2023-05-29T15:44:57;23.90;99.90
22923;DHT22;11627;51.322;22.816;2023-05-29T15:47:24;24.10;99.90
22923;DHT22;11627;51.322;22.816;2023-05-29T15:49:50;24.10;99.90
22923;DHT22;11627;51.322;22.816;2023-05-29T15:52:16;24.20;99.90
22923;DHT22;11627;51.322;22.816;2023-05-29T15:54:42;24.20;99.90
22923;DHT22;11627;51.322;22.816;2023-05-29T15:57:08;24.30;99.90
22923;DHT22;11627;51.322;22.816;2023-05-29T15:59:34;24.30;99.90
22923;DHT22;11627;51.322;22.816;2023-05-29T16:02:00;24.30;99.90
22923;DHT22;11627;51.322;22.816;2023-05-29T16:04:27;24.30;99.90
22923;DHT22;11627;51.322;22.816;2023-05-29T16:06:52;24.40;99.90
22923;DHT22;11627;51.322;22.816;2023-05-29T16:09:18;24.40;99.90
22923;DHT22;11627;51.322;22.816;2023-05-29T16:11:46;24.40;99.90